createdAt,value
2023-01-10T09:04:32.972Z,106.88
2023-01-10T09:06:31.176Z,135.00
2023-01-10T09:07:18.285Z,219.38
2023-01-10T09:08:19.401Z,225.00
2023-01-10T09:09:19.355Z,241.88
2023-01-10T09:10:19.917Z,264.38
2023-01-10T09:11:32.088Z,281.25
2023-01-10T09:12:18.668Z,219.38
2023-01-10T09:13:20.068Z,213.75
2023-01-10T09:14:19.230Z,174.38
2023-01-10T09:15:20.530Z,168.75
2023-01-10T09:16:20.098Z,163.12
2023-01-10T09:17:18.168Z,123.75
2023-01-10T09:18:20.578Z,118.12
2023-01-10T09:19:25.566Z,135.00
2023-01-10T09:22:10.638Z,241.88
2023-01-10T09:23:03.842Z,247.50
2023-01-10T09:23:56.297Z,264.38
2023-01-10T09:26:48.875Z,270.00
2023-01-10T09:29:15.079Z,315.00
2023-01-10T09:32:16.125Z,270.00
2023-01-10T09:33:15.579Z,303.75
2023-01-10T09:34:26.626Z,298.12
2023-01-10T09:35:15.598Z,281.25
2023-01-10T09:36:17.888Z,309.38
2023-01-10T09:37:17.038Z,320.62
2023-01-10T09:38:17.266Z,337.50
2023-01-10T09:39:16.987Z,337.50
2023-01-10T09:40:16.570Z,337.50
2023-01-10T09:41:17.033Z,337.50
2023-01-10T09:43:54.686Z,315.00
2023-01-10T09:44:54.353Z,315.00
2023-01-10T09:45:54.448Z,315.00
2023-01-10T09:46:54.232Z,315.00
2023-01-10T09:47:54.156Z,320.62
2023-01-10T09:48:54.159Z,326.25
2023-01-10T09:49:54.230Z,326.25
2023-01-10T09:50:54.976Z,331.88
2023-01-10T09:51:54.179Z,337.50
2023-01-10T09:52:54.312Z,337.50
2023-01-10T09:54:00.572Z,348.75
2023-01-10T09:54:57.999Z,348.75
2023-01-10T09:57:55.057Z,360.00
2023-01-10T09:58:54.082Z,365.62
2023-01-10T09:59:54.991Z,376.88
2023-01-10T10:00:54.108Z,376.88
2023-01-10T10:03:09.270Z,382.50
2023-01-10T10:04:03.722Z,393.75
2023-01-10T10:05:01.463Z,410.62
2023-01-10T10:06:03.788Z,444.38
2023-01-10T10:07:00.124Z,1243.12
2023-01-10T10:07:54.056Z,2480.62
2023-01-10T10:08:55.512Z,3465.00
2023-01-10T10:09:57.768Z,2109.38
2023-01-10T10:11:02.956Z,3526.88
2023-01-10T10:12:04.161Z,3718.12
2023-01-10T10:13:02.244Z,3622.50
2023-01-10T10:14:01.848Z,3706.88
2023-01-10T10:15:03.134Z,2885.62
2023-01-10T10:16:00.006Z,686.25
2023-01-10T10:18:03.079Z,421.88
2023-01-10T10:18:53.827Z,343.12
2023-01-10T10:19:53.815Z,618.75
2023-01-10T10:20:53.806Z,995.62
2023-01-10T10:21:53.807Z,3740.62
2023-01-10T10:22:53.785Z,540.00
2023-01-10T10:23:53.775Z,1215.00
2023-01-10T10:24:53.780Z,1980.00
2023-01-10T10:26:06.726Z,646.88
2023-01-10T10:26:54.769Z,523.12
2023-01-10T10:27:53.743Z,3206.25
2023-01-10T10:28:55.455Z,315.00
2023-01-10T10:29:53.719Z,315.00
2023-01-10T10:30:53.705Z,798.75
2023-01-10T10:31:53.772Z,838.12
2023-01-10T10:32:53.713Z,2070.00
2023-01-10T10:33:53.678Z,725.62
2023-01-10T10:34:53.674Z,3768.75
2023-01-10T10:35:53.664Z,1828.12
2023-01-10T10:36:53.664Z,3701.25
2023-01-10T10:37:53.633Z,2542.50
2023-01-10T10:38:53.629Z,562.50
2023-01-10T10:39:53.608Z,168.75
2023-01-10T10:40:53.594Z,140.62
2023-01-10T10:41:53.607Z,174.38
2023-01-10T10:42:53.571Z,208.12
2023-01-10T10:43:53.573Z,129.38
2023-01-10T10:44:53.557Z,95.62
2023-01-10T10:45:53.609Z,90.00
2023-01-10T10:46:53.541Z,84.38
2023-01-10T10:47:53.526Z,78.75
2023-01-10T10:48:53.533Z,78.75
2023-01-10T10:49:53.516Z,73.12
2023-01-10T10:50:53.496Z,73.12
2023-01-10T10:51:53.495Z,73.12
2023-01-10T10:52:53.481Z,67.50
2023-01-10T10:53:53.491Z,61.88
2023-01-10T10:54:53.453Z,61.88
2023-01-10T10:55:53.456Z,67.50
2023-01-10T10:56:53.440Z,67.50
2023-01-10T10:58:00.527Z,67.50
2023-01-10T10:58:54.408Z,67.50
2023-01-10T10:59:53.421Z,73.12
2023-01-10T11:00:53.454Z,73.12
2023-01-10T11:01:53.498Z,67.50
2023-01-10T11:02:53.372Z,67.50
2023-01-10T11:03:53.358Z,61.88
2023-01-10T11:04:53.403Z,61.88
2023-01-10T11:05:53.347Z,61.88
2023-01-10T11:06:53.345Z,61.88
2023-01-10T11:07:53.311Z,56.25
2023-01-10T11:08:53.307Z,56.25
2023-01-10T11:09:53.295Z,50.62
2023-01-10T11:10:53.288Z,56.25
2023-01-10T11:11:53.273Z,61.88
2023-01-10T11:12:53.273Z,67.50
2023-01-10T11:13:53.264Z,61.88
2023-01-10T11:14:53.238Z,56.25
2023-01-10T11:15:55.914Z,56.25
2023-01-10T11:16:53.218Z,56.25
2023-01-10T11:17:53.223Z,50.62
2023-01-10T11:18:53.192Z,50.62
2023-01-10T11:19:53.189Z,56.25
2023-01-10T11:20:53.175Z,56.25
2023-01-10T11:21:53.177Z,61.88
2023-01-10T11:22:53.160Z,61.88
2023-01-10T11:23:53.142Z,61.88
2023-01-10T11:24:53.130Z,61.88
2023-01-10T11:25:53.138Z,56.25
2023-01-10T11:26:53.121Z,56.25
2023-01-10T11:27:53.123Z,56.25
2023-01-10T11:28:53.087Z,56.25
2023-01-10T11:29:53.096Z,56.25
2023-01-10T11:30:53.075Z,50.62
2023-01-10T11:31:53.108Z,56.25
2023-01-10T11:32:53.101Z,61.88
2023-01-10T11:33:53.046Z,61.88
2023-01-10T11:34:53.034Z,61.88
2023-01-10T11:35:53.036Z,61.88
2023-01-10T11:36:53.009Z,61.88
2023-01-10T11:37:53.009Z,56.25
2023-01-10T11:38:53.020Z,56.25
2023-01-10T11:39:52.979Z,61.88
2023-01-10T11:40:52.966Z,61.88
2023-01-10T11:41:52.960Z,61.88
2023-01-10T11:42:52.977Z,61.88
2023-01-10T11:43:52.953Z,61.88
2023-01-10T11:44:52.930Z,61.88
2023-01-10T11:45:52.941Z,61.88
2023-01-10T11:46:52.911Z,61.88
2023-01-10T11:47:52.964Z,67.50
2023-01-10T11:49:06.201Z,61.88
2023-01-10T11:49:53.880Z,61.88
2023-01-10T11:50:52.874Z,56.25
2023-01-10T11:51:52.868Z,50.62
2023-01-10T11:52:52.876Z,56.25
2023-01-10T11:53:52.849Z,56.25
2023-01-10T11:54:52.827Z,56.25
2023-01-10T11:55:52.818Z,56.25
2023-01-10T11:56:52.802Z,56.25
2023-01-10T11:57:52.815Z,56.25
2023-01-10T11:58:52.786Z,56.25
2023-01-10T11:59:52.775Z,56.25
2023-01-10T12:00:52.807Z,56.25
2023-01-10T12:01:52.859Z,56.25
2023-01-10T12:02:52.763Z,56.25
2023-01-10T12:03:52.743Z,56.25
2023-01-10T12:04:53.194Z,56.25
2023-01-10T12:05:52.758Z,56.25
2023-01-10T12:06:52.706Z,56.25
2023-01-10T12:07:52.718Z,61.88
2023-01-10T12:08:52.764Z,61.88
2023-01-10T12:09:52.698Z,61.88
2023-01-10T12:10:52.665Z,67.50
2023-01-10T12:11:52.658Z,73.12
2023-01-10T12:12:52.652Z,78.75
2023-01-10T12:13:52.659Z,84.38
2023-01-10T12:14:52.625Z,84.38
2023-01-10T12:15:52.615Z,90.00
2023-01-10T12:16:52.638Z,84.38
2023-01-10T12:17:52.603Z,84.38
2023-01-10T12:18:52.625Z,95.62
2023-01-10T12:19:52.579Z,112.50
2023-01-10T12:20:52.568Z,112.50
2023-01-10T12:21:52.572Z,123.75
2023-01-10T12:22:52.547Z,140.62
2023-01-10T12:23:52.551Z,157.50
2023-01-10T12:24:52.547Z,174.38
2023-01-10T12:25:57.508Z,241.88
2023-01-10T12:26:53.501Z,270.00
2023-01-10T12:27:52.512Z,202.50
2023-01-10T12:28:52.509Z,157.50
2023-01-10T12:29:52.633Z,135.00
2023-01-10T12:30:52.469Z,146.25
2023-01-10T12:31:52.479Z,180.00
2023-01-10T12:32:52.450Z,185.62
2023-01-10T12:33:52.438Z,174.38
2023-01-10T12:34:52.442Z,174.38
2023-01-10T12:35:52.427Z,230.62
2023-01-10T12:36:52.406Z,1130.62
2023-01-10T12:37:52.400Z,1023.75
2023-01-10T12:38:52.390Z,360.00
2023-01-10T12:39:52.394Z,230.62
2023-01-10T12:40:52.361Z,208.12
2023-01-10T12:41:52.353Z,185.62
2023-01-10T12:42:52.340Z,174.38
2023-01-10T12:43:52.330Z,146.25
2023-01-10T12:44:52.334Z,123.75
2023-01-10T12:45:52.542Z,118.12
2023-01-10T12:47:06.673Z,118.12
2023-01-10T12:47:53.300Z,140.62
2023-01-10T12:48:52.293Z,202.50
2023-01-10T12:49:52.420Z,286.88
2023-01-10T12:50:52.262Z,180.00
2023-01-10T12:51:52.358Z,174.38
2023-01-10T12:52:52.263Z,168.75
2023-01-10T12:53:52.224Z,135.00
2023-01-10T12:54:52.408Z,112.50
2023-01-10T12:55:56.715Z,84.38
2023-01-10T12:56:52.185Z,73.12
2023-01-10T12:57:52.328Z,67.50
2023-01-10T12:58:52.176Z,67.50
2023-01-10T12:59:52.186Z,73.12
2023-01-10T13:00:52.193Z,73.12
2023-01-10T13:01:52.262Z,73.12
2023-01-10T13:02:52.185Z,67.50
2023-01-10T13:03:52.126Z,67.50
2023-01-10T13:04:52.138Z,67.50
2023-01-10T13:05:52.142Z,67.50
2023-01-10T13:06:52.086Z,67.50
2023-01-10T13:07:52.084Z,67.50
2023-01-10T13:08:52.076Z,67.50
2023-01-10T13:09:52.068Z,61.88
2023-01-10T13:10:52.043Z,61.88
2023-01-10T13:11:52.033Z,61.88
2023-01-10T13:12:52.026Z,56.25
2023-01-10T13:13:52.472Z,50.62
2023-01-10T13:14:52.027Z,45.00
2023-01-10T13:15:52.040Z,39.38
2023-01-10T13:16:51.997Z,39.38
2023-01-10T13:17:51.971Z,39.38
2023-01-10T13:18:51.967Z,39.38
2023-01-10T13:19:51.970Z,39.38
2023-01-10T13:20:51.937Z,39.38
2023-01-10T13:21:51.934Z,39.38
2023-01-10T13:22:51.923Z,39.38
2023-01-10T13:23:51.930Z,39.38
2023-01-10T13:24:51.939Z,39.38
2023-01-10T13:25:51.891Z,39.38
2023-01-10T13:26:51.878Z,39.38
2023-01-10T13:27:51.864Z,39.38
2023-01-10T13:28:51.870Z,39.38
2023-01-10T13:29:51.859Z,39.38
2023-01-10T13:30:51.943Z,39.38
2023-01-10T13:31:51.824Z,39.38
2023-01-10T13:32:51.825Z,39.38
2023-01-10T13:33:51.806Z,33.75
2023-01-10T13:34:51.821Z,33.75
2023-01-10T13:35:51.790Z,33.75
2023-01-10T13:36:51.785Z,33.75
2023-01-10T13:37:51.787Z,33.75
2023-01-10T13:38:51.788Z,33.75
2023-01-10T13:39:51.769Z,28.12
2023-01-10T13:40:51.750Z,28.12
2023-01-10T13:41:51.728Z,28.12
2023-01-10T13:42:51.723Z,28.12
2023-01-10T13:43:51.712Z,28.12
2023-01-10T13:44:52.934Z,22.50
2023-01-10T13:45:51.783Z,22.50
2023-01-10T13:46:51.759Z,22.50
2023-01-10T13:47:51.707Z,22.50
2023-01-10T13:48:51.656Z,22.50
2023-01-10T13:49:51.645Z,22.50
2023-01-10T13:50:51.666Z,22.50
2023-01-10T13:51:51.627Z,22.50
2023-01-10T13:52:51.624Z,22.50
2023-01-10T13:53:51.619Z,22.50
2023-01-10T13:54:51.602Z,22.50
2023-01-10T13:55:51.601Z,22.50
2023-01-10T13:56:51.585Z,22.50
2023-01-10T13:57:51.580Z,16.88
2023-01-10T13:58:51.561Z,16.88
2023-01-10T13:59:51.543Z,16.88
2023-01-10T14:00:51.609Z,16.88
2023-01-10T14:01:51.774Z,16.88
2023-01-10T14:02:51.522Z,16.88
2023-01-10T14:03:51.521Z,16.88
2023-01-10T14:04:51.581Z,11.25
2023-01-10T14:05:51.492Z,11.25
2023-01-10T14:06:51.472Z,16.88
2023-01-10T14:07:51.461Z,16.88
2023-01-10T14:08:51.459Z,16.88
2023-01-10T14:09:51.467Z,16.88
2023-01-10T14:10:51.442Z,16.88
2023-01-10T14:11:51.416Z,16.88
2023-01-10T14:12:51.415Z,22.50
2023-01-10T14:13:51.403Z,22.50
2023-01-10T14:14:51.396Z,22.50
2023-01-10T14:15:51.536Z,16.88
2023-01-10T14:16:51.371Z,16.88
2023-01-10T14:17:51.368Z,22.50
2023-01-10T14:18:51.358Z,22.50
2023-01-10T14:19:51.341Z,28.12
2023-01-10T14:20:51.348Z,33.75
2023-01-10T14:21:51.319Z,33.75
2023-01-10T14:22:51.312Z,39.38
2023-01-10T14:23:51.294Z,39.38
2023-01-10T14:24:51.288Z,39.38
2023-01-10T14:25:51.286Z,39.38
2023-01-10T14:26:51.270Z,45.00
2023-01-10T14:27:51.260Z,50.62
2023-01-10T14:28:51.249Z,50.62
2023-01-10T14:29:51.232Z,56.25
2023-01-10T14:30:51.258Z,56.25
2023-01-10T14:31:51.214Z,61.88
2023-01-10T14:32:51.208Z,67.50
2023-01-10T14:33:51.199Z,67.50
2023-01-10T14:34:51.195Z,61.88
2023-01-10T14:35:51.188Z,56.25
2023-01-10T14:36:51.162Z,56.25
2023-01-10T14:37:51.156Z,61.88
2023-01-10T14:38:51.156Z,61.88
2023-01-10T14:39:51.132Z,56.25
2023-01-10T14:40:51.142Z,56.25
2023-01-10T14:41:51.110Z,56.25
2023-01-10T14:42:51.120Z,50.62
2023-01-10T14:43:51.089Z,50.62
2023-01-10T14:44:53.813Z,50.62
2023-01-10T14:45:54.672Z,45.00
2023-01-10T14:46:51.067Z,45.00
2023-01-10T14:47:51.080Z,45.00
2023-01-10T14:48:55.563Z,39.38
2023-01-10T14:49:53.071Z,39.38
2023-01-10T14:50:53.277Z,33.75
2023-01-10T14:51:51.054Z,33.75
2023-01-10T14:52:52.191Z,28.12
2023-01-10T14:53:51.214Z,22.50
2023-01-10T14:55:01.632Z,22.50
2023-01-10T14:56:10.702Z,22.50
2023-01-10T14:56:50.963Z,22.50
2023-01-10T14:57:50.973Z,16.88
2023-01-10T14:58:50.956Z,16.88
2023-01-10T14:59:50.926Z,16.88
2023-01-10T15:00:51.009Z,16.88
2023-01-10T15:01:50.970Z,16.88
2023-01-10T15:02:50.911Z,16.88
2023-01-10T15:03:50.889Z,16.88
2023-01-10T15:04:50.980Z,16.88
2023-01-10T15:05:50.879Z,16.88
2023-01-10T15:06:50.877Z,16.88
2023-01-10T15:07:50.848Z,16.88
2023-01-10T15:08:50.842Z,16.88
2023-01-10T15:09:50.824Z,16.88
2023-01-10T15:10:50.816Z,16.88
2023-01-10T15:11:50.843Z,16.88
2023-01-10T15:12:50.791Z,16.88
2023-01-10T15:13:50.795Z,11.25
2023-01-10T15:14:50.772Z,11.25
2023-01-10T15:15:50.810Z,11.25
2023-01-10T15:16:50.763Z,11.25
2023-01-10T15:17:50.746Z,11.25
2023-01-10T15:18:50.738Z,11.25
2023-01-10T15:19:50.724Z,11.25
2023-01-10T15:20:50.705Z,5.62
2023-01-10T15:21:50.718Z,5.62
2023-01-10T15:22:50.687Z,5.62
2023-01-10T15:23:50.728Z,5.62
2023-01-10T15:24:50.702Z,5.62
2023-01-10T15:25:50.659Z,5.62
2023-01-10T15:26:50.660Z,5.62
2023-01-10T15:27:50.706Z,5.62
2023-01-10T15:28:50.625Z,0.00
2023-01-10T15:29:50.617Z,0.00
2023-01-10T15:30:50.715Z,0.00
2023-01-10T15:31:50.614Z,0.00
2023-01-10T15:32:50.601Z,0.00
2023-01-10T15:33:50.582Z,0.00
2023-01-10T15:34:50.570Z,0.00
2023-01-10T15:35:50.556Z,0.00
2023-01-10T15:36:50.583Z,0.00
2023-01-10T15:37:50.542Z,0.00
2023-01-10T15:38:50.529Z,0.00
2023-01-10T15:39:50.517Z,0.00
2023-01-10T15:40:50.504Z,0.00
2023-01-10T15:41:50.784Z,0.00
2023-01-10T15:42:50.540Z,0.00
2023-01-10T15:43:50.508Z,0.00
2023-01-10T15:44:50.484Z,0.00
2023-01-10T15:45:50.451Z,0.00
2023-01-10T15:46:50.507Z,0.00
2023-01-10T15:47:50.556Z,0.00
2023-01-10T15:48:50.450Z,0.00
2023-01-10T15:49:50.430Z,0.00
2023-01-10T15:50:50.411Z,0.00
2023-01-10T15:51:50.401Z,0.00
2023-01-10T15:52:50.409Z,0.00
2023-01-10T15:53:50.363Z,0.00
2023-01-10T15:54:50.369Z,0.00
2023-01-10T15:55:50.359Z,0.00
2023-01-10T15:56:50.405Z,0.00
2023-01-10T15:57:50.359Z,0.00
2023-01-10T15:58:50.344Z,0.00
2023-01-10T15:59:50.306Z,0.00
2023-01-10T16:00:50.331Z,0.00
2023-01-10T16:01:50.435Z,0.00
2023-01-10T16:02:50.533Z,0.00
2023-01-10T16:03:50.467Z,0.00
2023-01-10T16:04:50.268Z,0.00
2023-01-10T16:05:50.501Z,0.00
2023-01-10T16:06:50.231Z,0.00
2023-01-10T16:07:50.228Z,0.00
2023-01-10T16:08:50.216Z,0.00
2023-01-10T16:09:50.201Z,0.00
2023-01-10T16:10:50.195Z,0.00
2023-01-10T16:11:50.184Z,0.00
2023-01-10T16:12:50.224Z,0.00
2023-01-10T16:13:50.157Z,0.00
2023-01-10T16:14:50.150Z,0.00
2023-01-10T16:15:50.135Z,0.00
2023-01-10T16:16:50.129Z,0.00
2023-01-10T16:17:50.150Z,0.00
2023-01-10T16:18:50.115Z,0.00
2023-01-10T16:19:50.101Z,0.00
2023-01-10T16:20:50.104Z,0.00
2023-01-10T16:21:50.120Z,0.00
2023-01-10T16:22:50.082Z,0.00
2023-01-10T16:23:50.057Z,0.00
2023-01-10T16:24:50.056Z,0.00
2023-01-10T16:25:50.029Z,0.00
2023-01-10T16:26:50.024Z,0.00
2023-01-10T16:27:50.244Z,0.00
2023-01-10T16:28:50.008Z,0.00
2023-01-10T16:29:49.983Z,0.00
2023-01-10T16:30:49.981Z,0.00
2023-01-10T16:31:49.990Z,0.00
2023-01-10T16:32:49.976Z,0.00
2023-01-10T16:33:49.950Z,0.00
2023-01-10T16:34:49.957Z,0.00
2023-01-10T16:35:49.938Z,0.00
2023-01-10T16:36:49.922Z,0.00
2023-01-10T16:37:49.933Z,0.00
2023-01-10T16:38:49.903Z,0.00
2023-01-10T16:39:49.923Z,0.00
2023-01-10T16:40:49.884Z,0.00
2023-01-10T16:41:49.865Z,0.00
2023-01-10T16:42:49.869Z,0.00
2023-01-10T16:43:49.843Z,0.00
2023-01-10T16:44:49.829Z,0.00
2023-01-10T16:45:49.863Z,0.00
2023-01-10T16:46:49.815Z,0.00
2023-01-10T16:47:49.821Z,0.00
2023-01-10T16:48:49.811Z,0.00
2023-01-10T16:49:49.781Z,0.00
2023-01-10T16:50:49.771Z,0.00
2023-01-10T16:51:49.762Z,0.00
2023-01-10T16:52:49.751Z,0.00
2023-01-10T16:53:49.750Z,0.00
2023-01-10T16:54:49.734Z,0.00
2023-01-10T16:55:49.721Z,0.00
2023-01-10T16:56:49.710Z,0.00
2023-01-10T16:57:49.700Z,0.00
2023-01-10T16:58:49.717Z,0.00
2023-01-10T16:59:49.724Z,0.00
2023-01-10T17:00:49.695Z,0.00
2023-01-10T17:01:49.800Z,0.00
2023-01-10T17:02:49.646Z,0.00
2023-01-10T17:03:49.687Z,0.00
2023-01-10T17:04:49.635Z,0.00
2023-01-10T17:05:49.629Z,0.00
2023-01-10T17:06:49.615Z,0.00
2023-01-10T17:07:49.604Z,0.00
2023-01-10T17:08:49.693Z,0.00
2023-01-10T17:09:49.582Z,0.00
2023-01-10T17:10:50.713Z,0.00
2023-01-10T17:11:50.728Z,0.00
2023-01-10T17:12:50.734Z,0.00
2023-01-10T17:13:50.710Z,0.00
2023-01-10T17:14:51.253Z,0.00
2023-01-10T17:15:51.498Z,0.00
2023-01-10T17:16:50.718Z,0.00
2023-01-10T17:17:50.661Z,0.00
2023-01-10T17:18:50.666Z,0.00
2023-01-10T17:19:50.657Z,0.00
2023-01-10T17:20:50.656Z,0.00
2023-01-10T17:21:50.619Z,0.00
2023-01-10T17:22:50.640Z,0.00
2023-01-10T17:23:50.628Z,0.00
2023-01-10T17:24:50.613Z,0.00
2023-01-10T17:25:50.585Z,0.00
2023-01-10T17:26:50.623Z,0.00
2023-01-10T17:27:50.621Z,0.00
2023-01-10T17:28:50.565Z,0.00
2023-01-10T17:29:50.590Z,0.00
2023-01-10T17:30:50.539Z,0.00
2023-01-10T17:31:50.627Z,0.00
2023-01-10T17:32:50.526Z,0.00
2023-01-10T17:33:50.536Z,0.00
2023-01-10T17:34:50.495Z,0.00
2023-01-10T17:35:50.552Z,0.00
2023-01-10T17:36:50.477Z,0.00
2023-01-10T17:37:50.440Z,0.00
2023-01-10T17:38:50.471Z,0.00
2023-01-10T17:39:50.458Z,0.00
2023-01-10T17:40:50.440Z,0.00
2023-01-10T17:41:50.439Z,0.00
2023-01-10T17:42:50.432Z,0.00
2023-01-10T17:43:50.427Z,0.00
2023-01-10T17:44:50.394Z,0.00
2023-01-10T17:45:50.509Z,0.00
2023-01-10T17:46:50.400Z,0.00
2023-01-10T17:47:50.427Z,0.00
2023-01-10T17:48:50.372Z,0.00
2023-01-10T17:49:50.384Z,0.00
2023-01-10T17:50:50.321Z,0.00
2023-01-10T17:51:50.316Z,0.00
2023-01-10T17:52:50.326Z,0.00
2023-01-10T17:53:50.302Z,0.00
2023-01-10T17:54:50.314Z,0.00
2023-01-10T17:55:50.295Z,0.00
2023-01-10T17:56:50.280Z,0.00
2023-01-10T17:57:50.270Z,0.00
2023-01-10T17:58:50.278Z,0.00
2023-01-10T17:59:50.296Z,0.00
2023-01-10T18:00:52.962Z,0.00
2023-01-10T18:01:50.361Z,0.00
2023-01-10T18:02:50.877Z,0.00
2023-01-10T18:03:50.229Z,0.00
2023-01-10T18:04:50.247Z,0.00
2023-01-10T18:05:50.202Z,0.00
2023-01-10T18:06:50.206Z,0.00
2023-01-10T18:07:50.209Z,0.00
2023-01-10T18:08:50.190Z,0.00
2023-01-10T18:09:50.229Z,0.00
2023-01-10T18:10:50.195Z,0.00
2023-01-10T18:11:50.167Z,0.00
2023-01-10T18:12:50.127Z,0.00
2023-01-10T18:13:50.104Z,0.00
2023-01-10T18:14:50.153Z,0.00
2023-01-10T18:15:50.152Z,0.00
2023-01-10T18:16:50.218Z,0.00
2023-01-10T18:17:50.087Z,0.00
2023-01-10T18:18:50.072Z,0.00
2023-01-10T18:19:50.197Z,0.00
2023-01-10T18:20:50.042Z,0.00
2023-01-10T18:21:50.047Z,0.00
2023-01-10T18:22:50.052Z,0.00
2023-01-10T18:23:50.075Z,0.00
2023-01-10T18:24:50.038Z,0.00
2023-01-10T18:25:50.002Z,0.00
2023-01-10T18:26:50.032Z,0.00
2023-01-10T18:27:49.981Z,0.00
2023-01-10T18:28:49.991Z,0.00
2023-01-10T18:29:50.065Z,0.00
2023-01-10T18:30:50.043Z,0.00
2023-01-10T18:31:49.933Z,0.00
2023-01-10T18:32:49.952Z,0.00
2023-01-10T18:33:49.947Z,0.00
2023-01-10T18:34:49.943Z,0.00
2023-01-10T18:35:49.883Z,0.00
2023-01-10T18:36:50.831Z,0.00
2023-01-10T18:37:49.899Z,0.00
2023-01-10T18:38:49.873Z,0.00
2023-01-10T18:39:50.740Z,0.00
2023-01-10T18:40:49.872Z,0.00
2023-01-10T18:41:50.686Z,0.00
2023-01-10T18:42:49.836Z,0.00
2023-01-10T18:43:51.334Z,0.00
2023-01-10T18:44:49.823Z,0.00
2023-01-10T18:45:50.833Z,0.00
2023-01-10T18:46:49.796Z,0.00
2023-01-10T18:47:49.858Z,0.00
2023-01-10T18:48:49.819Z,0.00
2023-01-10T18:49:49.783Z,0.00
2023-01-10T18:50:49.770Z,0.00
2023-01-10T18:51:51.277Z,0.00
2023-01-10T18:52:49.793Z,0.00
2023-01-10T18:53:49.744Z,0.00
2023-01-10T18:54:49.750Z,0.00
2023-01-10T18:55:49.785Z,0.00
2023-01-10T18:56:49.714Z,0.00
2023-01-10T18:57:50.291Z,0.00
2023-01-10T18:58:50.621Z,0.00
2023-01-10T18:59:49.678Z,0.00
2023-01-10T19:00:49.656Z,0.00
2023-01-10T19:01:49.707Z,0.00
2023-01-10T19:02:49.726Z,0.00
2023-01-10T19:03:49.684Z,0.00
2023-01-10T19:04:50.290Z,0.00
2023-01-10T19:05:49.697Z,0.00
2023-01-10T19:06:50.460Z,0.00
2023-01-10T19:07:49.957Z,0.00
2023-01-10T19:08:49.589Z,0.00
2023-01-10T19:09:50.945Z,0.00
2023-01-10T19:11:11.819Z,0.00
2023-01-10T19:11:51.574Z,0.00
2023-01-10T19:12:49.550Z,0.00
2023-01-10T19:13:50.192Z,0.00
2023-01-10T19:14:49.546Z,0.00
2023-01-10T19:15:50.178Z,0.00
2023-01-10T19:16:49.559Z,0.00
2023-01-10T19:17:50.758Z,0.00
2023-01-10T19:18:49.748Z,0.00
2023-01-10T19:19:49.491Z,0.00
2023-01-10T19:20:50.253Z,0.00
2023-01-10T19:21:49.488Z,0.00
2023-01-10T19:22:49.691Z,0.00
2023-01-10T19:23:49.515Z,0.00
2023-01-10T19:24:50.556Z,0.00
2023-01-10T19:25:49.476Z,0.00
2023-01-10T19:26:50.541Z,0.00
2023-01-10T19:27:49.442Z,0.00
2023-01-10T19:28:49.430Z,0.00
2023-01-10T19:29:49.793Z,0.00
2023-01-10T19:31:02.761Z,0.00
2023-01-10T19:31:51.366Z,0.00
2023-01-10T19:32:49.352Z,0.00
2023-01-10T19:33:49.420Z,0.00
2023-01-10T19:34:49.348Z,0.00
2023-01-10T19:35:49.332Z,0.00
2023-01-10T19:36:49.306Z,0.00
2023-01-10T19:37:50.769Z,0.00
2023-01-10T19:38:49.296Z,0.00
2023-01-10T19:39:49.345Z,0.00
2023-01-10T19:40:49.328Z,0.00
2023-01-10T19:41:49.282Z,0.00
2023-01-10T19:42:49.265Z,0.00
2023-01-10T19:43:49.259Z,0.00
2023-01-10T19:44:49.828Z,0.00
2023-01-10T19:45:49.209Z,0.00
2023-01-10T19:46:49.232Z,0.00
2023-01-10T19:47:49.225Z,0.00
2023-01-10T19:48:49.195Z,0.00
2023-01-10T19:49:49.170Z,0.00
2023-01-10T19:50:49.227Z,0.00
2023-01-10T19:51:49.244Z,0.00
2023-01-10T19:52:49.164Z,0.00
2023-01-10T19:53:49.319Z,0.00
2023-01-10T19:54:49.128Z,0.00
2023-01-10T19:55:49.130Z,0.00
2023-01-10T19:56:49.150Z,0.00
2023-01-10T19:57:49.277Z,0.00
2023-01-10T19:58:49.113Z,0.00
2023-01-10T19:59:49.106Z,0.00
2023-01-10T20:00:49.076Z,0.00
2023-01-10T20:01:49.121Z,0.00
2023-01-10T20:02:49.082Z,0.00
2023-01-10T20:03:49.084Z,0.00
2023-01-10T20:04:49.027Z,0.00
2023-01-10T20:05:49.043Z,0.00
2023-01-10T20:06:49.020Z,0.00
2023-01-10T20:07:49.017Z,0.00
2023-01-10T20:08:49.004Z,0.00
2023-01-10T20:09:48.988Z,0.00
2023-01-10T20:10:49.809Z,0.00
2023-01-10T20:11:48.975Z,0.00
2023-01-10T20:12:48.969Z,0.00
2023-01-10T20:13:48.970Z,0.00
2023-01-10T20:14:48.933Z,0.00
2023-01-10T20:15:48.970Z,0.00
2023-01-10T20:16:48.928Z,0.00
2023-01-10T20:17:49.930Z,0.00
2023-01-10T20:18:48.901Z,0.00
2023-01-10T20:19:48.873Z,0.00
2023-01-10T20:20:48.885Z,0.00
2023-01-10T20:21:48.876Z,0.00
2023-01-10T20:22:48.838Z,0.00
2023-01-10T20:23:48.866Z,0.00
2023-01-10T20:24:48.847Z,0.00
2023-01-10T20:25:48.870Z,0.00
2023-01-10T20:26:48.832Z,0.00
2023-01-10T20:27:48.790Z,0.00
2023-01-10T20:28:48.802Z,0.00
2023-01-10T20:29:48.776Z,0.00
2023-01-10T20:30:49.816Z,0.00
2023-01-10T20:31:48.767Z,0.00
2023-01-10T20:32:48.781Z,0.00
2023-01-10T20:33:48.719Z,0.00
2023-01-10T20:34:48.739Z,0.00
2023-01-10T20:35:48.727Z,0.00
2023-01-10T20:36:48.743Z,0.00
2023-01-10T20:37:49.355Z,0.00
2023-01-10T20:38:48.693Z,0.00
2023-01-10T20:39:48.671Z,0.00
2023-01-10T20:40:48.683Z,0.00
2023-01-10T20:41:48.869Z,0.00
2023-01-10T20:42:48.643Z,0.00
2023-01-10T20:43:48.631Z,0.00
2023-01-10T20:44:48.663Z,0.00
2023-01-10T20:45:48.643Z,0.00
2023-01-10T20:46:48.742Z,0.00
2023-01-10T20:47:48.600Z,0.00
2023-01-10T20:48:48.600Z,0.00
2023-01-10T20:49:48.585Z,0.00
2023-01-10T20:50:48.574Z,0.00
2023-01-10T20:51:48.608Z,0.00
2023-01-10T20:52:48.569Z,0.00
2023-01-10T20:53:48.556Z,0.00
2023-01-10T20:54:48.542Z,0.00
2023-01-10T20:55:59.133Z,0.00
2023-01-10T20:56:50.572Z,0.00
2023-01-10T20:57:48.496Z,0.00
2023-01-10T20:58:48.519Z,0.00
2023-01-10T20:59:48.489Z,0.00
2023-01-10T21:00:48.483Z,0.00
2023-01-10T21:01:48.529Z,0.00
2023-01-10T21:02:48.539Z,0.00
2023-01-10T21:03:48.462Z,0.00
2023-01-10T21:04:50.469Z,0.00
2023-01-10T21:05:49.442Z,0.00
2023-01-10T21:06:48.467Z,0.00
2023-01-10T21:07:48.445Z,0.00
2023-01-10T21:08:48.398Z,0.00
2023-01-10T21:09:48.417Z,0.00
2023-01-10T21:10:48.391Z,0.00
2023-01-10T21:12:01.968Z,0.00
2023-01-10T21:12:50.410Z,0.00
2023-01-10T21:13:48.358Z,0.00
2023-01-10T21:14:48.338Z,0.00
2023-01-10T21:15:48.409Z,0.00
2023-01-10T21:16:48.337Z,0.00
2023-01-10T21:17:48.322Z,0.00
2023-01-10T21:18:48.317Z,0.00
2023-01-10T21:19:48.308Z,0.00
2023-01-10T21:20:48.273Z,0.00
2023-01-10T21:21:48.291Z,0.00
2023-01-10T21:22:48.300Z,0.00
2023-01-10T21:23:48.263Z,0.00
2023-01-10T21:24:48.277Z,0.00
2023-01-10T21:25:48.255Z,0.00
2023-01-10T21:26:48.313Z,0.00
2023-01-10T21:27:48.222Z,0.00
2023-01-10T21:28:48.280Z,0.00
2023-01-10T21:29:48.234Z,0.00
2023-01-10T21:30:48.213Z,0.00
2023-01-10T21:31:48.244Z,0.00
2023-01-10T21:32:48.220Z,0.00
2023-01-10T21:33:48.218Z,0.00
2023-01-10T21:34:48.158Z,0.00
2023-01-10T21:35:48.151Z,0.00
2023-01-10T21:36:48.182Z,0.00
2023-01-10T21:37:48.155Z,0.00
2023-01-10T21:38:48.124Z,0.00
2023-01-10T21:39:48.104Z,0.00
2023-01-10T21:40:48.113Z,0.00
2023-01-10T21:41:48.094Z,0.00
2023-01-10T21:42:48.141Z,0.00
2023-01-10T21:43:48.093Z,0.00
2023-01-10T21:44:48.070Z,0.00
2023-01-10T21:45:48.048Z,0.00
2023-01-10T21:46:48.067Z,0.00
2023-01-10T21:47:48.062Z,0.00
2023-01-10T21:48:48.859Z,0.00
2023-01-10T21:49:48.049Z,0.00
2023-01-10T21:50:48.009Z,0.00
2023-01-10T21:51:48.014Z,0.00
2023-01-10T21:52:47.991Z,0.00
2023-01-10T21:53:47.966Z,0.00
2023-01-10T21:54:47.949Z,0.00
2023-01-10T21:55:47.931Z,0.00
2023-01-10T21:56:47.955Z,0.00
2023-01-10T21:57:47.968Z,0.00
2023-01-10T21:58:47.972Z,0.00
2023-01-10T21:59:47.908Z,0.00
2023-01-10T22:00:47.953Z,0.00
2023-01-10T22:01:47.923Z,0.00
2023-01-10T22:02:47.936Z,0.00
2023-01-10T22:03:47.924Z,0.00
2023-01-10T22:04:47.856Z,0.00
2023-01-10T22:05:48.875Z,0.00
2023-01-10T22:06:47.908Z,0.00
2023-01-10T22:07:47.846Z,0.00
2023-01-10T22:08:47.860Z,0.00
2023-01-10T22:09:47.843Z,0.00
2023-01-10T22:10:47.807Z,0.00
2023-01-10T22:11:47.770Z,0.00
2023-01-10T22:12:47.811Z,0.00
2023-01-10T22:13:47.801Z,0.00
2023-01-10T22:14:47.753Z,0.00
2023-01-10T22:15:47.744Z,0.00
2023-01-10T22:16:47.735Z,0.00
2023-01-10T22:17:48.713Z,0.00
2023-01-10T22:18:47.767Z,0.00